sensor_id;sensor_type;location;lat;lon;timestamp;P1;durP1;ratioP1;P2;durP2;ratioP2
31724;SDS011;18306;40.960;14.836;2022-08-19T00:02:02;10.25;;;4.50;;
31724;SDS011;18306;40.960;14.836;2022-08-19T00:04:31;8.77;;;3.58;;
31724;SDS011;18306;40.960;14.836;2022-08-19T00:07:03;10.73;;;3.78;;
31724;SDS011;18306;40.960;14.836;2022-08-19T00:09:32;10.80;;;4.13;;
31724;SDS011;18306;40.960;14.836;2022-08-19T00:11:59;9.95;;;3.30;;
31724;SDS011;18306;40.960;14.836;2022-08-19T00:14:28;13.65;;;4.30;;
31724;SDS011;18306;40.960;14.836;2022-08-19T00:16:59;7.80;;;3.55;;
31724;SDS011;18306;40.960;14.836;2022-08-19T00:19:27;10.68;;;3.92;;
31724;SDS011;18306;40.960;14.836;2022-08-19T00:21:54;6.50;;;3.22;;
31724;SDS011;18306;40.960;14.836;2022-08-19T00:24:22;8.10;;;4.68;;
31724;SDS011;18306;40.960;14.836;2022-08-19T00:26:49;12.60;;;3.53;;
31724;SDS011;18306;40.960;14.836;2022-08-19T00:29:19;7.18;;;4.05;;
31724;SDS011;18306;40.960;14.836;2022-08-19T00:31:47;10.07;;;3.10;;
31724;SDS011;18306;40.960;14.836;2022-08-19T00:34:16;13.05;;;3.85;;
31724;SDS011;18306;40.960;14.836;2022-08-19T00:36:43;12.07;;;4.57;;
31724;SDS011;18306;40.960;14.836;2022-08-19T00:39:11;9.88;;;3.80;;
31724;SDS011;18306;40.960;14.836;2022-08-19T00:41:41;5.57;;;3.45;;
31724;SDS011;18306;40.960;14.836;2022-08-19T00:44:12;7.63;;;3.40;;
31724;SDS011;18306;40.960;14.836;2022-08-19T00:46:43;16.27;;;4.15;;
31724;SDS011;18306;40.960;14.836;2022-08-19T00:49:30;8.82;;;3.65;;
31724;SDS011;18306;40.960;14.836;2022-08-19T00:52:12;6.57;;;3.80;;
31724;SDS011;18306;40.960;14.836;2022-08-19T00:54:45;6.72;;;4.60;;
31724;SDS011;18306;40.960;14.836;2022-08-19T00:57:16;25.42;;;4.13;;
31724;SDS011;18306;40.960;14.836;2022-08-19T00:59:47;17.98;;;4.55;;
31724;SDS011;18306;40.960;14.836;2022-08-19T01:02:20;8.15;;;3.38;;
31724;SDS011;18306;40.960;14.836;2022-08-19T01:04:48;11.45;;;3.85;;
31724;SDS011;18306;40.960;14.836;2022-08-19T01:07:15;8.20;;;3.38;;
31724;SDS011;18306;40.960;14.836;2022-08-19T01:09:44;7.40;;;2.95;;
31724;SDS011;18306;40.960;14.836;2022-08-19T01:12:11;5.05;;;2.65;;
31724;SDS011;18306;40.960;14.836;2022-08-19T01:14:39;18.92;;;5.13;;
31724;SDS011;18306;40.960;14.836;2022-08-19T01:17:07;11.48;;;3.20;;
31724;SDS011;18306;40.960;14.836;2022-08-19T01:19:37;10.00;;;3.60;;
31724;SDS011;18306;40.960;14.836;2022-08-19T01:25:24;6.10;;;3.22;;
31724;SDS011;18306;40.960;14.836;2022-08-19T01:27:57;14.90;;;4.03;;
31724;SDS011;18306;40.960;14.836;2022-08-19T01:30:27;20.48;;;3.75;;
31724;SDS011;18306;40.960;14.836;2022-08-19T01:32:57;10.02;;;3.60;;
31724;SDS011;18306;40.960;14.836;2022-08-19T01:35:27;5.85;;;3.33;;
31724;SDS011;18306;40.960;14.836;2022-08-19T01:37:57;7.68;;;3.67;;
31724;SDS011;18306;40.960;14.836;2022-08-19T01:40:35;23.88;;;4.63;;
31724;SDS011;18306;40.960;14.836;2022-08-19T01:43:04;12.27;;;3.90;;
31724;SDS011;18306;40.960;14.836;2022-08-19T01:45:33;6.07;;;2.80;;
31724;SDS011;18306;40.960;14.836;2022-08-19T01:48:02;8.73;;;3.70;;
31724;SDS011;18306;40.960;14.836;2022-08-19T01:50:31;15.68;;;3.67;;
31724;SDS011;18306;40.960;14.836;2022-08-19T01:53:00;7.68;;;4.25;;
31724;SDS011;18306;40.960;14.836;2022-08-19T01:55:29;10.95;;;3.15;;
31724;SDS011;18306;40.960;14.836;2022-08-19T01:57:58;8.77;;;3.55;;
31724;SDS011;18306;40.960;14.836;2022-08-19T02:00:28;9.05;;;3.90;;
31724;SDS011;18306;40.960;14.836;2022-08-19T02:02:57;18.13;;;3.78;;
31724;SDS011;18306;40.960;14.836;2022-08-19T02:05:25;7.95;;;3.72;;
31724;SDS011;18306;40.960;14.836;2022-08-19T02:07:56;10.27;;;4.38;;
31724;SDS011;18306;40.960;14.836;2022-08-19T02:10:23;15.68;;;3.35;;
31724;SDS011;18306;40.960;14.836;2022-08-19T02:12:51;7.30;;;3.28;;
31724;SDS011;18306;40.960;14.836;2022-08-19T02:15:19;6.43;;;3.13;;
31724;SDS011;18306;40.960;14.836;2022-08-19T02:17:46;7.57;;;3.38;;
31724;SDS011;18306;40.960;14.836;2022-08-19T02:20:14;8.13;;;3.40;;
31724;SDS011;18306;40.960;14.836;2022-08-19T02:22:43;9.25;;;3.58;;
31724;SDS011;18306;40.960;14.836;2022-08-19T02:25:13;9.45;;;3.33;;
31724;SDS011;18306;40.960;14.836;2022-08-19T02:27:41;12.68;;;3.63;;
31724;SDS011;18306;40.960;14.836;2022-08-19T02:30:11;9.20;;;3.95;;
31724;SDS011;18306;40.960;14.836;2022-08-19T02:32:42;13.10;;;3.63;;
31724;SDS011;18306;40.960;14.836;2022-08-19T02:35:09;16.42;;;4.65;;
31724;SDS011;18306;40.960;14.836;2022-08-19T02:37:37;7.13;;;2.80;;
31724;SDS011;18306;40.960;14.836;2022-08-19T02:40:23;10.98;;;3.28;;
31724;SDS011;18306;40.960;14.836;2022-08-19T02:42:51;4.95;;;2.35;;
31724;SDS011;18306;40.960;14.836;2022-08-19T02:45:18;10.43;;;4.38;;
31724;SDS011;18306;40.960;14.836;2022-08-19T02:47:46;18.98;;;3.03;;
31724;SDS011;18306;40.960;14.836;2022-08-19T02:50:13;9.80;;;4.15;;
31724;SDS011;18306;40.960;14.836;2022-08-19T02:52:41;11.50;;;4.95;;
31724;SDS011;18306;40.960;14.836;2022-08-19T02:55:08;10.55;;;3.92;;
31724;SDS011;18306;40.960;14.836;2022-08-19T02:57:35;11.02;;;4.20;;
31724;SDS011;18306;40.960;14.836;2022-08-19T03:00:06;8.95;;;4.85;;
31724;SDS011;18306;40.960;14.836;2022-08-19T03:02:35;4.45;;;3.42;;
31724;SDS011;18306;40.960;14.836;2022-08-19T03:05:03;10.57;;;4.57;;
31724;SDS011;18306;40.960;14.836;2022-08-19T03:07:30;13.85;;;4.22;;
31724;SDS011;18306;40.960;14.836;2022-08-19T03:09:58;11.38;;;5.65;;
31724;SDS011;18306;40.960;14.836;2022-08-19T03:12:25;9.98;;;3.63;;
31724;SDS011;18306;40.960;14.836;2022-08-19T03:14:52;12.23;;;4.05;;
31724;SDS011;18306;40.960;14.836;2022-08-19T03:17:19;22.13;;;4.70;;
31724;SDS011;18306;40.960;14.836;2022-08-19T03:19:47;9.07;;;4.82;;
31724;SDS011;18306;40.960;14.836;2022-08-19T03:22:14;12.38;;;5.18;;
31724;SDS011;18306;40.960;14.836;2022-08-19T03:24:41;17.13;;;5.38;;
31724;SDS011;18306;40.960;14.836;2022-08-19T03:27:09;8.27;;;4.25;;
31724;SDS011;18306;40.960;14.836;2022-08-19T03:29:37;11.75;;;4.18;;
31724;SDS011;18306;40.960;14.836;2022-08-19T03:32:06;9.75;;;4.22;;
31724;SDS011;18306;40.960;14.836;2022-08-19T03:34:34;11.80;;;4.00;;
31724;SDS011;18306;40.960;14.836;2022-08-19T03:37:07;10.80;;;4.78;;
31724;SDS011;18306;40.960;14.836;2022-08-19T03:39:37;16.10;;;4.90;;
31724;SDS011;18306;40.960;14.836;2022-08-19T03:42:06;10.60;;;4.00;;
31724;SDS011;18306;40.960;14.836;2022-08-19T03:44:33;8.43;;;4.65;;
31724;SDS011;18306;40.960;14.836;2022-08-19T03:47:03;15.50;;;5.40;;
31724;SDS011;18306;40.960;14.836;2022-08-19T03:49:32;11.68;;;5.78;;
31724;SDS011;18306;40.960;14.836;2022-08-19T03:52:01;8.40;;;4.05;;
31724;SDS011;18306;40.960;14.836;2022-08-19T03:54:31;16.38;;;4.35;;
31724;SDS011;18306;40.960;14.836;2022-08-19T03:56:59;6.80;;;4.55;;
31724;SDS011;18306;40.960;14.836;2022-08-19T03:59:27;14.00;;;4.68;;
31724;SDS011;18306;40.960;14.836;2022-08-19T04:01:58;9.18;;;4.30;;
31724;SDS011;18306;40.960;14.836;2022-08-19T04:04:28;13.05;;;4.15;;
31724;SDS011;18306;40.960;14.836;2022-08-19T04:06:55;11.50;;;5.05;;
31724;SDS011;18306;40.960;14.836;2022-08-19T04:09:23;12.02;;;4.45;;
31724;SDS011;18306;40.960;14.836;2022-08-19T04:11:52;13.98;;;5.43;;
31724;SDS011;18306;40.960;14.836;2022-08-19T04:14:23;15.55;;;5.90;;
31724;SDS011;18306;40.960;14.836;2022-08-19T04:16:52;7.85;;;3.55;;
31724;SDS011;18306;40.960;14.836;2022-08-19T04:19:20;16.33;;;5.03;;
31724;SDS011;18306;40.960;14.836;2022-08-19T04:21:50;10.10;;;4.43;;
31724;SDS011;18306;40.960;14.836;2022-08-19T04:24:20;5.60;;;3.85;;
31724;SDS011;18306;40.960;14.836;2022-08-19T04:26:48;16.65;;;5.13;;
31724;SDS011;18306;40.960;14.836;2022-08-19T04:29:18;15.82;;;4.03;;
31724;SDS011;18306;40.960;14.836;2022-08-19T04:31:48;9.35;;;4.38;;
31724;SDS011;18306;40.960;14.836;2022-08-19T04:34:16;14.40;;;4.55;;
31724;SDS011;18306;40.960;14.836;2022-08-19T04:36:48;18.08;;;5.45;;
31724;SDS011;18306;40.960;14.836;2022-08-19T04:39:22;7.85;;;4.47;;
31724;SDS011;18306;40.960;14.836;2022-08-19T04:42:14;9.50;;;4.50;;
31724;SDS011;18306;40.960;14.836;2022-08-19T04:45:02;15.35;;;5.30;;
31724;SDS011;18306;40.960;14.836;2022-08-19T04:47:31;12.00;;;5.50;;
31724;SDS011;18306;40.960;14.836;2022-08-19T04:49:59;11.45;;;5.72;;
31724;SDS011;18306;40.960;14.836;2022-08-19T04:52:26;19.42;;;6.03;;
31724;SDS011;18306;40.960;14.836;2022-08-19T04:54:54;9.38;;;4.88;;
31724;SDS011;18306;40.960;14.836;2022-08-19T04:57:21;9.98;;;4.47;;
31724;SDS011;18306;40.960;14.836;2022-08-19T04:59:49;7.32;;;4.50;;
31724;SDS011;18306;40.960;14.836;2022-08-19T05:02:22;10.82;;;4.18;;
31724;SDS011;18306;40.960;14.836;2022-08-19T05:04:56;12.80;;;5.15;;
31724;SDS011;18306;40.960;14.836;2022-08-19T05:07:27;13.13;;;5.10;;
31724;SDS011;18306;40.960;14.836;2022-08-19T05:09:55;6.63;;;4.45;;
31724;SDS011;18306;40.960;14.836;2022-08-19T05:12:23;12.57;;;4.50;;
31724;SDS011;18306;40.960;14.836;2022-08-19T05:14:50;8.35;;;3.92;;
31724;SDS011;18306;40.960;14.836;2022-08-19T05:17:18;11.63;;;5.25;;
31724;SDS011;18306;40.960;14.836;2022-08-19T05:19:45;12.80;;;4.05;;
31724;SDS011;18306;40.960;14.836;2022-08-19T05:22:31;10.63;;;3.97;;
31724;SDS011;18306;40.960;14.836;2022-08-19T05:25:03;11.65;;;4.07;;
31724;SDS011;18306;40.960;14.836;2022-08-19T05:27:33;5.75;;;3.50;;
31724;SDS011;18306;40.960;14.836;2022-08-19T05:30:02;13.18;;;4.25;;
31724;SDS011;18306;40.960;14.836;2022-08-19T05:32:30;8.43;;;4.20;;
31724;SDS011;18306;40.960;14.836;2022-08-19T05:35:04;15.18;;;3.63;;
31724;SDS011;18306;40.960;14.836;2022-08-19T05:37:42;4.68;;;3.17;;
31724;SDS011;18306;40.960;14.836;2022-08-19T05:40:16;6.40;;;2.72;;
31724;SDS011;18306;40.960;14.836;2022-08-19T05:42:59;14.48;;;4.35;;
31724;SDS011;18306;40.960;14.836;2022-08-19T05:45:42;14.73;;;3.30;;
31724;SDS011;18306;40.960;14.836;2022-08-19T05:48:18;5.50;;;3.90;;
31724;SDS011;18306;40.960;14.836;2022-08-19T05:50:48;8.30;;;3.83;;
31724;SDS011;18306;40.960;14.836;2022-08-19T05:53:17;11.18;;;4.05;;
31724;SDS011;18306;40.960;14.836;2022-08-19T05:55:44;8.88;;;3.88;;
31724;SDS011;18306;40.960;14.836;2022-08-19T05:58:12;7.63;;;3.25;;
31724;SDS011;18306;40.960;14.836;2022-08-19T06:00:39;5.15;;;2.85;;
31724;SDS011;18306;40.960;14.836;2022-08-19T06:03:09;9.25;;;4.18;;
31724;SDS011;18306;40.960;14.836;2022-08-19T06:05:36;8.95;;;4.15;;
31724;SDS011;18306;40.960;14.836;2022-08-19T06:08:03;7.28;;;4.50;;
31724;SDS011;18306;40.960;14.836;2022-08-19T06:10:31;6.30;;;3.90;;
31724;SDS011;18306;40.960;14.836;2022-08-19T06:12:58;17.27;;;4.20;;
31724;SDS011;18306;40.960;14.836;2022-08-19T06:15:26;9.27;;;4.55;;
31724;SDS011;18306;40.960;14.836;2022-08-19T06:17:54;23.88;;;4.22;;
31724;SDS011;18306;40.960;14.836;2022-08-19T06:20:22;7.72;;;3.88;;
31724;SDS011;18306;40.960;14.836;2022-08-19T06:22:49;7.18;;;3.53;;
31724;SDS011;18306;40.960;14.836;2022-08-19T06:25:17;8.32;;;3.65;;
31724;SDS011;18306;40.960;14.836;2022-08-19T06:27:45;8.98;;;3.90;;
31724;SDS011;18306;40.960;14.836;2022-08-19T06:30:13;8.88;;;4.18;;
31724;SDS011;18306;40.960;14.836;2022-08-19T06:32:41;7.88;;;4.22;;
31724;SDS011;18306;40.960;14.836;2022-08-19T06:35:08;13.38;;;3.38;;
31724;SDS011;18306;40.960;14.836;2022-08-19T06:37:36;23.58;;;5.65;;
31724;SDS011;18306;40.960;14.836;2022-08-19T06:40:04;10.73;;;4.22;;
31724;SDS011;18306;40.960;14.836;2022-08-19T06:42:32;5.20;;;3.40;;
31724;SDS011;18306;40.960;14.836;2022-08-19T06:45:00;4.20;;;2.92;;
31724;SDS011;18306;40.960;14.836;2022-08-19T06:47:30;14.55;;;4.28;;
31724;SDS011;18306;40.960;14.836;2022-08-19T06:49:59;15.25;;;3.67;;
31724;SDS011;18306;40.960;14.836;2022-08-19T06:52:30;8.40;;;2.83;;
31724;SDS011;18306;40.960;14.836;2022-08-19T06:55:00;18.27;;;3.85;;
31724;SDS011;18306;40.960;14.836;2022-08-19T06:57:30;16.73;;;3.63;;
31724;SDS011;18306;40.960;14.836;2022-08-19T06:59:58;10.50;;;3.63;;
31724;SDS011;18306;40.960;14.836;2022-08-19T07:02:29;8.45;;;3.97;;
31724;SDS011;18306;40.960;14.836;2022-08-19T07:04:56;8.77;;;2.78;;
31724;SDS011;18306;40.960;14.836;2022-08-19T07:07:24;13.77;;;4.07;;
31724;SDS011;18306;40.960;14.836;2022-08-19T07:09:52;12.93;;;4.05;;
31724;SDS011;18306;40.960;14.836;2022-08-19T07:12:19;11.95;;;4.47;;
31724;SDS011;18306;40.960;14.836;2022-08-19T07:14:46;14.98;;;3.67;;
31724;SDS011;18306;40.960;14.836;2022-08-19T07:17:15;14.80;;;3.05;;
31724;SDS011;18306;40.960;14.836;2022-08-19T07:19:43;12.55;;;4.03;;
31724;SDS011;18306;40.960;14.836;2022-08-19T07:22:12;19.42;;;3.65;;
31724;SDS011;18306;40.960;14.836;2022-08-19T07:24:42;10.63;;;4.20;;
31724;SDS011;18306;40.960;14.836;2022-08-19T07:27:10;12.63;;;3.65;;
31724;SDS011;18306;40.960;14.836;2022-08-19T07:29:37;15.35;;;3.63;;
31724;SDS011;18306;40.960;14.836;2022-08-19T07:32:05;8.48;;;3.47;;
31724;SDS011;18306;40.960;14.836;2022-08-19T07:34:33;8.15;;;3.83;;
31724;SDS011;18306;40.960;14.836;2022-08-19T07:37:04;10.80;;;4.40;;
31724;SDS011;18306;40.960;14.836;2022-08-19T07:39:33;8.73;;;4.03;;
31724;SDS011;18306;40.960;14.836;2022-08-19T07:42:05;8.02;;;4.00;;
31724;SDS011;18306;40.960;14.836;2022-08-19T07:44:35;15.68;;;3.90;;
31724;SDS011;18306;40.960;14.836;2022-08-19T07:47:04;8.93;;;3.60;;
31724;SDS011;18306;40.960;14.836;2022-08-19T07:49:33;10.48;;;3.55;;
31724;SDS011;18306;40.960;14.836;2022-08-19T07:52:02;16.55;;;3.65;;
31724;SDS011;18306;40.960;14.836;2022-08-19T07:54:33;6.45;;;3.58;;
31724;SDS011;18306;40.960;14.836;2022-08-19T07:57:03;5.47;;;3.30;;
31724;SDS011;18306;40.960;14.836;2022-08-19T07:59:33;10.52;;;4.97;;
31724;SDS011;18306;40.960;14.836;2022-08-19T08:02:01;13.77;;;5.07;;
31724;SDS011;18306;40.960;14.836;2022-08-19T08:04:29;7.97;;;4.47;;
31724;SDS011;18306;40.960;14.836;2022-08-19T08:07:16;10.93;;;4.15;;
31724;SDS011;18306;40.960;14.836;2022-08-19T08:10:11;19.33;;;4.53;;
31724;SDS011;18306;40.960;14.836;2022-08-19T08:12:53;18.38;;;5.22;;
31724;SDS011;18306;40.960;14.836;2022-08-19T08:15:22;18.17;;;4.82;;
31724;SDS011;18306;40.960;14.836;2022-08-19T08:17:49;13.63;;;4.10;;
31724;SDS011;18306;40.960;14.836;2022-08-19T08:20:18;15.90;;;4.10;;
31724;SDS011;18306;40.960;14.836;2022-08-19T08:22:45;8.27;;;3.53;;
31724;SDS011;18306;40.960;14.836;2022-08-19T08:25:32;13.65;;;3.63;;
31724;SDS011;18306;40.960;14.836;2022-08-19T08:28:01;14.93;;;3.83;;
31724;SDS011;18306;40.960;14.836;2022-08-19T08:30:30;11.40;;;3.63;;
31724;SDS011;18306;40.960;14.836;2022-08-19T08:33:00;8.15;;;3.42;;
31724;SDS011;18306;40.960;14.836;2022-08-19T08:35:28;16.98;;;3.85;;
31724;SDS011;18306;40.960;14.836;2022-08-19T08:37:55;12.82;;;4.43;;
31724;SDS011;18306;40.960;14.836;2022-08-19T08:42:53;8.02;;;2.72;;
31724;SDS011;18306;40.960;14.836;2022-08-19T08:45:32;9.90;;;3.72;;
31724;SDS011;18306;40.960;14.836;2022-08-19T08:51:05;13.60;;;3.50;;
31724;SDS011;18306;40.960;14.836;2022-08-19T08:53:38;6.05;;;2.65;;
31724;SDS011;18306;40.960;14.836;2022-08-19T08:56:08;25.70;;;3.33;;
31724;SDS011;18306;40.960;14.836;2022-08-19T08:58:42;13.90;;;2.45;;
31724;SDS011;18306;40.960;14.836;2022-08-19T09:01:17;9.30;;;3.78;;
31724;SDS011;18306;40.960;14.836;2022-08-19T09:03:45;8.95;;;3.38;;
31724;SDS011;18306;40.960;14.836;2022-08-19T09:09:14;6.45;;;2.75;;
31724;SDS011;18306;40.960;14.836;2022-08-19T09:17:46;5.85;;;2.42;;
31724;SDS011;18306;40.960;14.836;2022-08-19T09:20:21;6.68;;;2.92;;
31724;SDS011;18306;40.960;14.836;2022-08-19T09:22:50;8.70;;;2.50;;
31724;SDS011;18306;40.960;14.836;2022-08-19T09:25:18;7.75;;;2.00;;
31724;SDS011;18306;40.960;14.836;2022-08-19T09:27:50;4.07;;;2.47;;
31724;SDS011;18306;40.960;14.836;2022-08-19T09:30:21;4.70;;;1.42;;
31724;SDS011;18306;40.960;14.836;2022-08-19T09:32:54;6.45;;;2.28;;
31724;SDS011;18306;40.960;14.836;2022-08-19T09:35:23;4.47;;;1.73;;
31724;SDS011;18306;40.960;14.836;2022-08-19T09:37:52;3.00;;;1.92;;
31724;SDS011;18306;40.960;14.836;2022-08-19T09:40:20;9.00;;;2.33;;
31724;SDS011;18306;40.960;14.836;2022-08-19T09:42:47;2.42;;;2.20;;
31724;SDS011;18306;40.960;14.836;2022-08-19T09:45:15;3.38;;;1.75;;
31724;SDS011;18306;40.960;14.836;2022-08-19T09:47:44;4.18;;;1.50;;
31724;SDS011;18306;40.960;14.836;2022-08-19T09:50:13;2.80;;;1.67;;
31724;SDS011;18306;40.960;14.836;2022-08-19T09:52:41;6.75;;;2.78;;
31724;SDS011;18306;40.960;14.836;2022-08-19T09:55:11;17.27;;;2.70;;
31724;SDS011;18306;40.960;14.836;2022-08-19T09:57:39;6.28;;;1.63;;
31724;SDS011;18306;40.960;14.836;2022-08-19T10:00:07;3.08;;;1.38;;
31724;SDS011;18306;40.960;14.836;2022-08-19T10:02:36;5.97;;;2.45;;
31724;SDS011;18306;40.960;14.836;2022-08-19T10:05:04;5.70;;;2.05;;
31724;SDS011;18306;40.960;14.836;2022-08-19T10:07:59;2.60;;;1.45;;
31724;SDS011;18306;40.960;14.836;2022-08-19T10:10:27;3.70;;;1.80;;
31724;SDS011;18306;40.960;14.836;2022-08-19T10:12:55;10.77;;;2.63;;
31724;SDS011;18306;40.960;14.836;2022-08-19T10:15:25;7.18;;;1.40;;
31724;SDS011;18306;40.960;14.836;2022-08-19T10:17:53;9.68;;;2.17;;
31724;SDS011;18306;40.960;14.836;2022-08-19T10:20:21;3.38;;;1.35;;
31724;SDS011;18306;40.960;14.836;2022-08-19T10:22:50;6.28;;;2.40;;
31724;SDS011;18306;40.960;14.836;2022-08-19T10:25:18;7.53;;;1.58;;
31724;SDS011;18306;40.960;14.836;2022-08-19T10:27:46;2.42;;;1.63;;
31724;SDS011;18306;40.960;14.836;2022-08-19T10:30:13;3.13;;;1.75;;
31724;SDS011;18306;40.960;14.836;2022-08-19T10:32:40;2.50;;;1.75;;
31724;SDS011;18306;40.960;14.836;2022-08-19T10:35:13;5.75;;;2.03;;
31724;SDS011;18306;40.960;14.836;2022-08-19T10:37:40;15.27;;;2.03;;
31724;SDS011;18306;40.960;14.836;2022-08-19T10:40:08;2.20;;;1.50;;
31724;SDS011;18306;40.960;14.836;2022-08-19T10:42:37;1.40;;;1.23;;
31724;SDS011;18306;40.960;14.836;2022-08-19T10:45:05;3.70;;;1.45;;
31724;SDS011;18306;40.960;14.836;2022-08-19T10:47:36;4.82;;;1.50;;
31724;SDS011;18306;40.960;14.836;2022-08-19T10:50:08;9.85;;;1.85;;
31724;SDS011;18306;40.960;14.836;2022-08-19T10:52:55;1.58;;;0.93;;
31724;SDS011;18306;40.960;14.836;2022-08-19T10:55:26;5.40;;;1.45;;
31724;SDS011;18306;40.960;14.836;2022-08-19T10:58:15;1.02;;;0.93;;
31724;SDS011;18306;40.960;14.836;2022-08-19T11:00:55;5.25;;;1.63;;
31724;SDS011;18306;40.960;14.836;2022-08-19T11:03:25;1.77;;;1.40;;
31724;SDS011;18306;40.960;14.836;2022-08-19T11:05:59;2.65;;;1.25;;
31724;SDS011;18306;40.960;14.836;2022-08-19T11:08:28;3.78;;;1.45;;
31724;SDS011;18306;40.960;14.836;2022-08-19T11:10:58;1.95;;;1.50;;
31724;SDS011;18306;40.960;14.836;2022-08-19T11:13:36;3.60;;;1.13;;
31724;SDS011;18306;40.960;14.836;2022-08-19T11:16:15;7.80;;;1.50;;
31724;SDS011;18306;40.960;14.836;2022-08-19T11:18:52;4.97;;;1.63;;
31724;SDS011;18306;40.960;14.836;2022-08-19T11:21:30;1.58;;;1.30;;
31724;SDS011;18306;40.960;14.836;2022-08-19T11:24:00;0.93;;;0.90;;
31724;SDS011;18306;40.960;14.836;2022-08-19T11:26:30;3.78;;;1.77;;
31724;SDS011;18306;40.960;14.836;2022-08-19T11:28:58;3.53;;;0.90;;
31724;SDS011;18306;40.960;14.836;2022-08-19T11:31:32;2.22;;;1.58;;
31724;SDS011;18306;40.960;14.836;2022-08-19T11:36:55;2.10;;;1.30;;
31724;SDS011;18306;40.960;14.836;2022-08-19T11:39:27;1.35;;;1.20;;
31724;SDS011;18306;40.960;14.836;2022-08-19T11:42:00;1.33;;;1.02;;
31724;SDS011;18306;40.960;14.836;2022-08-19T11:44:46;5.10;;;1.25;;
31724;SDS011;18306;40.960;14.836;2022-08-19T11:47:14;1.75;;;1.40;;
31724;SDS011;18306;40.960;14.836;2022-08-19T11:49:42;2.45;;;1.30;;
31724;SDS011;18306;40.960;14.836;2022-08-19T11:52:09;2.63;;;1.08;;
31724;SDS011;18306;40.960;14.836;2022-08-19T11:54:37;6.60;;;1.17;;
31724;SDS011;18306;40.960;14.836;2022-08-19T11:57:05;2.92;;;1.65;;
31724;SDS011;18306;40.960;14.836;2022-08-19T11:59:33;2.97;;;1.40;;
31724;SDS011;18306;40.960;14.836;2022-08-19T12:02:06;3.30;;;1.40;;
31724;SDS011;18306;40.960;14.836;2022-08-19T12:04:38;5.38;;;1.58;;
31724;SDS011;18306;40.960;14.836;2022-08-19T12:07:07;3.53;;;1.30;;
31724;SDS011;18306;40.960;14.836;2022-08-19T12:09:34;6.13;;;1.20;;
31724;SDS011;18306;40.960;14.836;2022-08-19T12:12:02;2.88;;;1.23;;
31724;SDS011;18306;40.960;14.836;2022-08-19T12:14:29;3.55;;;1.23;;
31724;SDS011;18306;40.960;14.836;2022-08-19T12:16:59;4.40;;;1.40;;
31724;SDS011;18306;40.960;14.836;2022-08-19T12:19:26;2.65;;;1.15;;
31724;SDS011;18306;40.960;14.836;2022-08-19T12:21:58;2.78;;;1.40;;
31724;SDS011;18306;40.960;14.836;2022-08-19T12:24:29;1.20;;;1.02;;
31724;SDS011;18306;40.960;14.836;2022-08-19T12:26:58;0.80;;;0.80;;
31724;SDS011;18306;40.960;14.836;2022-08-19T12:29:29;2.35;;;1.33;;
31724;SDS011;18306;40.960;14.836;2022-08-19T12:32:01;2.40;;;1.15;;
31724;SDS011;18306;40.960;14.836;2022-08-19T12:34:28;2.65;;;1.15;;
31724;SDS011;18306;40.960;14.836;2022-08-19T12:36:57;1.02;;;0.95;;
31724;SDS011;18306;40.960;14.836;2022-08-19T12:39:25;8.23;;;1.55;;
31724;SDS011;18306;40.960;14.836;2022-08-19T12:41:53;3.42;;;1.38;;
31724;SDS011;18306;40.960;14.836;2022-08-19T12:44:21;7.57;;;1.20;;
31724;SDS011;18306;40.960;14.836;2022-08-19T12:46:49;1.60;;;1.08;;
31724;SDS011;18306;40.960;14.836;2022-08-19T12:49:20;1.65;;;0.90;;
31724;SDS011;18306;40.960;14.836;2022-08-19T12:51:48;4.18;;;1.10;;
31724;SDS011;18306;40.960;14.836;2022-08-19T12:54:15;1.45;;;1.17;;
31724;SDS011;18306;40.960;14.836;2022-08-19T12:56:44;3.05;;;1.15;;
31724;SDS011;18306;40.960;14.836;2022-08-19T12:59:12;1.13;;;0.95;;
31724;SDS011;18306;40.960;14.836;2022-08-19T13:01:40;4.13;;;0.98;;
31724;SDS011;18306;40.960;14.836;2022-08-19T13:04:08;5.45;;;1.30;;
31724;SDS011;18306;40.960;14.836;2022-08-19T13:06:37;1.98;;;1.35;;
31724;SDS011;18306;40.960;14.836;2022-08-19T13:09:06;0.90;;;0.55;;
31724;SDS011;18306;40.960;14.836;2022-08-19T13:11:40;5.97;;;1.10;;
31724;SDS011;18306;40.960;14.836;2022-08-19T13:14:39;3.58;;;1.27;;
31724;SDS011;18306;40.960;14.836;2022-08-19T13:17:10;3.70;;;0.90;;
31724;SDS011;18306;40.960;14.836;2022-08-19T13:19:39;0.80;;;0.65;;
31724;SDS011;18306;40.960;14.836;2022-08-19T13:22:09;1.73;;;1.23;;
31724;SDS011;18306;40.960;14.836;2022-08-19T13:24:39;5.55;;;1.45;;
31724;SDS011;18306;40.960;14.836;2022-08-19T13:27:06;1.63;;;1.50;;
31724;SDS011;18306;40.960;14.836;2022-08-19T13:29:36;1.90;;;1.33;;
31724;SDS011;18306;40.960;14.836;2022-08-19T13:32:25;3.33;;;1.05;;
31724;SDS011;18306;40.960;14.836;2022-08-19T13:35:11;1.50;;;0.85;;
31724;SDS011;18306;40.960;14.836;2022-08-19T13:37:39;2.47;;;0.98;;
31724;SDS011;18306;40.960;14.836;2022-08-19T13:43:23;5.28;;;1.05;;
31724;SDS011;18306;40.960;14.836;2022-08-19T13:45:54;1.58;;;0.82;;
31724;SDS011;18306;40.960;14.836;2022-08-19T13:48:24;1.77;;;0.88;;
31724;SDS011;18306;40.960;14.836;2022-08-19T13:50:53;1.23;;;1.00;;
31724;SDS011;18306;40.960;14.836;2022-08-19T13:53:21;2.25;;;1.38;;
31724;SDS011;18306;40.960;14.836;2022-08-19T13:55:48;2.50;;;0.95;;
31724;SDS011;18306;40.960;14.836;2022-08-19T13:58:17;2.95;;;1.15;;
31724;SDS011;18306;40.960;14.836;2022-08-19T14:00:45;6.47;;;1.40;;
31724;SDS011;18306;40.960;14.836;2022-08-19T14:03:13;1.27;;;1.00;;
31724;SDS011;18306;40.960;14.836;2022-08-19T14:05:41;3.10;;;0.95;;
31724;SDS011;18306;40.960;14.836;2022-08-19T14:08:08;0.75;;;0.70;;
31724;SDS011;18306;40.960;14.836;2022-08-19T14:13:13;1.55;;;0.73;;
31724;SDS011;18306;40.960;14.836;2022-08-19T14:15:43;2.85;;;1.20;;
31724;SDS011;18306;40.960;14.836;2022-08-19T14:18:11;6.70;;;0.98;;
31724;SDS011;18306;40.960;14.836;2022-08-19T14:20:39;1.23;;;0.70;;
31724;SDS011;18306;40.960;14.836;2022-08-19T14:23:07;1.30;;;0.88;;
31724;SDS011;18306;40.960;14.836;2022-08-19T14:25:34;1.27;;;0.73;;
31724;SDS011;18306;40.960;14.836;2022-08-19T14:28:11;1.10;;;1.00;;
31724;SDS011;18306;40.960;14.836;2022-08-19T14:30:39;3.83;;;1.30;;
31724;SDS011;18306;40.960;14.836;2022-08-19T14:33:07;1.23;;;0.95;;
31724;SDS011;18306;40.960;14.836;2022-08-19T14:35:36;8.38;;;1.00;;
31724;SDS011;18306;40.960;14.836;2022-08-19T14:38:05;2.63;;;1.17;;
31724;SDS011;18306;40.960;14.836;2022-08-19T14:40:41;1.70;;;1.10;;
31724;SDS011;18306;40.960;14.836;2022-08-19T14:43:09;1.55;;;1.02;;
31724;SDS011;18306;40.960;14.836;2022-08-19T14:45:38;1.45;;;1.05;;
31724;SDS011;18306;40.960;14.836;2022-08-19T14:48:14;1.13;;;0.98;;
31724;SDS011;18306;40.960;14.836;2022-08-19T14:50:42;2.20;;;1.23;;
31724;SDS011;18306;40.960;14.836;2022-08-19T14:53:10;1.60;;;0.90;;
31724;SDS011;18306;40.960;14.836;2022-08-19T14:55:40;1.98;;;1.17;;
31724;SDS011;18306;40.960;14.836;2022-08-19T15:00:39;1.98;;;0.90;;
31724;SDS011;18306;40.960;14.836;2022-08-19T15:03:06;1.02;;;0.93;;
31724;SDS011;18306;40.960;14.836;2022-08-19T15:05:33;2.80;;;0.80;;
31724;SDS011;18306;40.960;14.836;2022-08-19T15:08:05;4.38;;;1.00;;
31724;SDS011;18306;40.960;14.836;2022-08-19T15:10:32;1.90;;;1.25;;
31724;SDS011;18306;40.960;14.836;2022-08-19T15:12:59;2.28;;;1.17;;
31724;SDS011;18306;40.960;14.836;2022-08-19T15:15:27;1.13;;;1.02;;
31724;SDS011;18306;40.960;14.836;2022-08-19T15:17:54;2.95;;;1.08;;